Palm Springs, FL

2:27 PM EST on March 04, 2015 (GMT -0500)
APRSWXNET | Change Station
CLOSE
Current Station
Personal Weather Station
Location: Lake Worth, FL
Elevation: 15 ft
Nearby Weather Stations

Elev 15 ft 26.62 °N, 80.08 °W | Updated 24 days ago

Clear
Clear
81 °F
Feels Like 83 °F
N
14
Wind Variable Wind from SE
Gusts mph

Today
High -- | Low -- °F
--% Chance of Precip.
Yesterday
High -- | Low -- °F
Precip. -- in
6:41 AM 6:23 PM
Waxing Gibbous, 99% visible
Pressure 30.12 in
Visibility 10.0 miles
Clouds Scattered Clouds 2700 ft
Scattered Clouds 3500 ft
Mostly Cloudy 4400 ft
Heat Index 83 °F
Dew Point 66 °F
Humidity 60%
Rainfall 0.00 in
Snow Depth Not available.
UV 5 out of 12
Pollen 11.10 out of 12
Air Quality Not available.
Flu Activity Not available.
METAR KPBI 041853Z 12016G24KT 10SM SCT027 SCT035 BKN044 28/19 A3012 RMK AO2 SLP200 T02780189

More Conditions Fewer Conditions

Pressure 30.12 in
Visibility 10.0 miles
Clouds Scattered Clouds 2700 ft
Scattered Clouds 3500 ft
Mostly Cloudy 4400 ft
Heat Index 83 °F
Dew Point 66 °F
Humidity 60%
Rainfall 0.00 in
Snow Depth Not available.
UV 5 out of 12
Pollen 11.10 out of 12
Air Quality Not available.
Flu Activity Not available.
METAR KPBI 041853Z 12016G24KT 10SM SCT027 SCT035 BKN044 28/19 A3012 RMK AO2 SLP200 T02780189

More Conditions Fewer Conditions

10-Day Weather Forecast

Almanac

Astronomy

Mar. 04, 2015 Rise Set
Actual Time
Civil Twilight
Nautical Twilight
Astronomical Twilight
Moon
Length of Visible Light
Length of Day
Tomorrow will be .
, % of the Moon is Illuminated

Today's Extremes

State Highs State Lows

Community

WunderPhotos

Upload Photos

1,802,552 photos uploaded!

WunderBlogs® & News

Nearby

Air Quality

  Air Quality AQ Index Pollutant
Not available.

Snow Depth

Station Depth Elevation

Earthquake Activity

City Distance Mag. Time & Date
Minimum magnitude displayed is 2.5.

Coastal Water Temperatures

Place Temperature

Nearby Weather Stations